Time;durP1;ratioP1;P1;durP2;ratioP2;P2;SDS_P1;SDS_P2;PMS_P1;PMS_P2;Temp;Humidity;BMP_temperature;BMP_pressure;BME280_temperature;BME280_humidity;BME280_pressure;Samples;Min_cycle;Max_cycle;Signal;HPM_P1;HPM_P2
2021/09/13 00:01:42;;;;;;;3.65;3.00;;;17.90;99.90;;;;;;5034158;28;20053;-67
2021/09/13 00:04:07;;;;;;;4.40;3.20;;;17.90;99.90;;;;;;5034171;28;20417;-67
2021/09/13 00:06:33;;;;;;;6.10;3.30;;;17.90;99.90;;;;;;5034597;28;20030;-67
2021/09/13 00:08:59;;;;;;;4.05;3.13;;;17.90;99.90;;;;;;5034544;28;20048;-67
2021/09/13 00:11:25;;;;;;;4.25;3.08;;;17.80;99.90;;;;;;5032867;28;20490;-67
2021/09/13 00:13:51;;;;;;;5.07;3.95;;;17.80;99.90;;;;;;5034178;28;20078;-66
2021/09/13 00:16:17;;;;;;;5.68;3.03;;;17.70;99.90;;;;;;5034388;28;20466;-65
2021/09/13 00:18:43;;;;;;;4.03;3.38;;;17.70;99.90;;;;;;5033319;28;20072;-66
2021/09/13 00:21:08;;;;;;;4.60;2.83;;;17.70;99.90;;;;;;5032904;28;20033;-66
2021/09/13 00:23:34;;;;;;;6.35;3.30;;;17.70;99.90;;;;;;5033096;28;20097;-66
2021/09/13 00:26:00;;;;;;;3.50;2.92;;;17.70;99.90;;;;;;5032739;28;20036;-66
2021/09/13 00:28:25;;;;;;;5.03;3.58;;;17.70;99.90;;;;;;5033858;28;20021;-66
2021/09/13 00:30:51;;;;;;;3.20;2.90;;;17.60;99.90;;;;;;5034107;28;20036;-66
2021/09/13 00:33:18;;;;;;;4.75;3.22;;;17.60;99.90;;;;;;5035245;28;20120;-65
2021/09/13 00:35:43;;;;;;;3.50;3.00;;;17.60;99.90;;;;;;5033939;28;20029;-66
2021/09/13 00:38:09;;;;;;;5.00;3.08;;;17.60;99.90;;;;;;5033724;28;20605;-66
2021/09/13 00:40:34;;;;;;;4.18;3.38;;;17.60;99.90;;;;;;5032528;28;20033;-66
2021/09/13 00:43:02;;;;;;;5.28;3.38;;;17.60;99.90;;;;;;5034443;28;20030;-66
2021/09/13 00:45:28;;;;;;;4.55;3.22;;;17.50;99.90;;;;;;5033885;28;20029;-66
2021/09/13 00:47:53;;;;;;;5.13;3.40;;;17.50;99.90;;;;;;5034361;28;20029;-66
2021/09/13 00:50:19;;;;;;;3.88;2.88;;;17.40;99.90;;;;;;5033629;28;20083;-66
2021/09/13 00:52:52;;;;;;;5.85;3.25;;;17.40;99.90;;;;;;5033942;28;20041;-66
2021/09/13 00:55:19;;;;;;;4.75;2.95;;;17.40;99.90;;;;;;5033782;28;20104;-67
2021/09/13 00:57:46;;;;;;;3.67;3.22;;;17.40;99.90;;;;;;5031900;28;20025;-66
2021/09/13 01:00:12;;;;;;;4.30;3.28;;;17.30;99.90;;;;;;5033312;28;20099;-67
2021/09/13 01:02:38;;;;;;;6.28;3.35;;;17.30;99.90;;;;;;5033667;28;20017;-65
2021/09/13 01:05:04;;;;;;;3.35;3.00;;;17.20;99.90;;;;;;5033314;28;20036;-66
2021/09/13 01:07:31;;;;;;;4.82;3.38;;;17.10;99.90;;;;;;5033189;28;20018;-66
2021/09/13 01:09:57;;;;;;;3.67;3.05;;;17.00;99.90;;;;;;5035866;28;20033;-65
2021/09/13 01:12:23;;;;;;;6.80;3.60;;;16.90;99.90;;;;;;5033182;28;20367;-66
2021/09/13 01:14:49;;;;;;;4.15;3.33;;;16.80;99.90;;;;;;5033378;28;20037;-65
2021/09/13 01:17:15;;;;;;;3.85;3.42;;;16.70;99.90;;;;;;5033140;28;20025;-65
2021/09/13 01:19:40;;;;;;;5.05;3.35;;;16.60;99.90;;;;;;5033175;28;20036;-66
2021/09/13 01:22:08;;;;;;;4.05;3.38;;;16.60;99.90;;;;;;5033406;28;20021;-66
2021/09/13 01:24:34;;;;;;;4.00;2.92;;;16.60;99.90;;;;;;5032884;28;20021;-66
2021/09/13 01:27:09;;;;;;;3.88;2.92;;;16.60;99.90;;;;;;5032833;28;20168;-66
2021/09/13 01:29:35;;;;;;;6.20;3.47;;;16.50;99.90;;;;;;5032877;28;20038;-66
2021/09/13 01:32:02;;;;;;;5.75;3.58;;;16.50;99.90;;;;;;5033013;28;20030;-66
2021/09/13 01:34:28;;;;;;;5.55;3.72;;;16.50;99.90;;;;;;5032753;28;20390;-66
2021/09/13 01:36:54;;;;;;;5.50;3.25;;;16.50;99.90;;;;;;5032824;28;20025;-66
2021/09/13 01:39:20;;;;;;;4.90;3.28;;;16.60;99.90;;;;;;5032707;28;20037;-66
2021/09/13 01:41:46;;;;;;;6.50;3.28;;;16.50;99.90;;;;;;5032810;28;20470;-66
2021/09/13 01:44:13;;;;;;;;;;;16.40;99.90;;;;;;5033392;28;20105;-66
2021/09/13 01:46:39;;;;;;;5.47;3.83;;;16.30;99.90;;;;;;5032924;28;19905;-65
2021/09/13 01:49:05;;;;;;;;;;;16.20;99.90;;;;;;5033313;28;20030;-65
2021/09/13 01:51:32;;;;;;;6.13;3.70;;;16.20;99.90;;;;;;5032797;28;20316;-67
2021/09/13 01:53:57;;;;;;;4.57;4.15;;;16.10;99.90;;;;;;5032835;28;20029;-66
2021/09/13 01:56:23;;;;;;;5.65;4.20;;;16.00;99.90;;;;;;5032628;28;20108;-66
2021/09/13 01:58:49;;;;;;;5.40;3.67;;;16.00;99.90;;;;;;5033940;28;20102;-66
2021/09/13 02:01:14;;;;;;;4.60;4.13;;;15.90;99.90;;;;;;5031159;28;20031;-65
2021/09/13 02:03:40;;;;;;;7.68;4.00;;;15.90;99.90;;;;;;5032598;28;20260;-66
2021/09/13 02:06:06;;;;;;;4.20;3.80;;;15.90;99.90;;;;;;5032722;28;20091;-65
2021/09/13 02:08:32;;;;;;;4.13;3.60;;;15.90;99.90;;;;;;5031127;28;20112;-66
2021/09/13 02:10:58;;;;;;;5.78;3.75;;;15.90;99.90;;;;;;5031152;28;20429;-66
2021/09/13 02:13:23;;;;;;;7.50;4.25;;;16.00;99.90;;;;;;5032466;28;20021;-66
2021/09/13 02:15:49;;;;;;;9.25;3.90;;;16.00;99.90;;;;;;5032845;28;20589;-66
2021/09/13 02:18:14;;;;;;;6.60;3.80;;;15.90;99.90;;;;;;5033546;28;20025;-66
2021/09/13 02:20:40;;;;;;;6.93;3.70;;;16.00;99.90;;;;;;5036244;28;20288;-66
2021/09/13 02:23:06;;;;;;;4.47;3.57;;;15.90;99.90;;;;;;5036329;28;20821;-67
2021/09/13 02:25:31;;;;;;;5.03;4.35;;;15.90;99.90;;;;;;5034949;28;20271;-67
2021/09/13 02:27:57;;;;;;;7.80;3.53;;;15.80;99.90;;;;;;5036137;28;20460;-67
2021/09/13 02:30:23;;;;;;;4.68;4.03;;;15.70;99.90;;;;;;5036273;28;20034;-67
2021/09/13 02:32:48;;;;;;;4.63;4.10;;;15.60;99.90;;;;;;5036080;28;20022;-67
2021/09/13 02:35:14;;;;;;;4.95;4.45;;;15.50;99.90;;;;;;5036095;28;20394;-66
2021/09/13 02:37:40;;;;;;;6.05;4.35;;;15.50;99.90;;;;;;5034869;28;20033;-65
2021/09/13 02:40:07;;;;;;;5.53;4.78;;;15.50;99.90;;;;;;5036023;28;20124;-66
2021/09/13 02:42:33;;;;;;;5.38;4.60;;;15.40;99.90;;;;;;5035795;28;20029;-66
2021/09/13 02:44:58;;;;;;;8.25;4.80;;;15.40;99.90;;;;;;5035993;28;20128;-66
2021/09/13 02:47:26;;;;;;;5.47;4.97;;;15.40;99.90;;;;;;5034448;28;20037;-66
2021/09/13 02:49:52;;;;;;;7.10;5.55;;;15.40;99.90;;;;;;5036521;28;20446;-66
2021/09/13 02:52:17;;;;;;;6.87;5.00;;;15.40;99.90;;;;;;5035742;28;20103;-66
2021/09/13 02:54:43;;;;;;;5.50;4.87;;;15.40;99.90;;;;;;5035706;28;20339;-66
2021/09/13 02:57:09;;;;;;;6.87;4.73;;;15.40;99.90;;;;;;5035416;28;20264;-66
2021/09/13 02:59:34;;;;;;;6.63;4.45;;;15.40;99.90;;;;;;5035342;28;20342;-66
2021/09/13 03:02:00;;;;;;;7.67;4.53;;;15.50;99.90;;;;;;5034081;28;20026;-66
2021/09/13 03:04:25;;;;;;;9.23;4.32;;;15.50;99.90;;;;;;5035553;28;20026;-65
2021/09/13 03:06:51;;;;;;;4.28;3.88;;;15.60;99.90;;;;;;5035858;28;20492;-65
2021/09/13 03:09:17;;;;;;;4.73;4.23;;;15.60;99.90;;;;;;5035537;28;20029;-65
2021/09/13 03:11:43;;;;;;;4.60;4.13;;;15.50;99.90;;;;;;5035640;28;20824;-65
2021/09/13 03:14:09;;;;;;;11.23;4.80;;;15.50;99.90;;;;;;5035807;28;20113;-65
2021/09/13 03:16:34;;;;;;;7.35;4.13;;;15.50;99.90;;;;;;5035581;28;20041;-65
2021/09/13 03:19:00;;;;;;;5.05;3.53;;;15.50;99.90;;;;;;5033828;28;20502;-65
2021/09/13 03:21:25;;;;;;;7.55;4.53;;;15.80;99.90;;;;;;5035335;28;20026;-66
2021/09/13 03:23:51;;;;;;;4.85;3.83;;;15.70;99.90;;;;;;5033793;28;20056;-65
2021/09/13 03:26:17;;;;;;;5.60;3.90;;;15.70;99.90;;;;;;5035037;28;20053;-65
2021/09/13 03:28:43;;;;;;;4.43;3.33;;;15.60;99.90;;;;;;5034804;28;20398;-66
2021/09/13 03:31:08;;;;;;;7.00;4.03;;;15.50;99.90;;;;;;5035122;28;20022;-66
2021/09/13 03:33:34;;;;;;;5.68;3.80;;;15.50;99.90;;;;;;5035068;28;20032;-66
2021/09/13 03:36:00;;;;;;;10.23;5.00;;;15.50;99.90;;;;;;5035355;28;20017;-66
2021/09/13 03:38:26;;;;;;;6.13;3.88;;;15.40;99.90;;;;;;5034885;28;20033;-66
2021/09/13 03:40:51;;;;;;;4.30;3.90;;;15.30;99.90;;;;;;5035220;28;20037;-66
2021/09/13 03:43:17;;;;;;;4.32;3.92;;;15.30;99.90;;;;;;5034950;28;20025;-66
2021/09/13 03:45:43;;;;;;;5.57;4.18;;;15.30;99.90;;;;;;5034582;28;20068;-66
2021/09/13 03:48:08;;;;;;;5.43;4.07;;;15.20;99.90;;;;;;5034618;28;20029;-66
2021/09/13 03:50:34;;;;;;;6.00;4.07;;;15.20;99.90;;;;;;5033424;28;20029;-67
2021/09/13 03:53:00;;;;;;;6.78;4.68;;;15.20;99.90;;;;;;5034970;28;20052;-67
2021/09/13 03:55:26;;;;;;;5.53;4.35;;;15.20;99.90;;;;;;5034438;28;20045;-66
2021/09/13 03:57:52;;;;;;;5.78;4.65;;;15.10;99.90;;;;;;5034736;28;20029;-65
2021/09/13 04:00:18;;;;;;;6.80;5.00;;;15.10;99.90;;;;;;5034486;28;20112;-65
2021/09/13 04:02:48;;;;;;;4.43;4.03;;;15.10;99.90;;;;;;5034644;28;20351;-65
2021/09/13 04:05:17;;;;;;;7.72;4.30;;;15.10;99.90;;;;;;5034871;28;20539;-66
2021/09/13 04:11:21;;;;;;;4.88;4.30;;;15.10;99.90;;;;;;5011145;28;20025;-65
2021/09/13 04:13:24;;;;;;;7.18;4.72;;;15.00;99.90;;;;;;5026283;28;20061;-65
2021/09/13 04:15:50;;;;;;;6.65;4.65;;;15.00;99.90;;;;;;5034550;28;20024;-66
2021/09/13 04:18:15;;;;;;;6.95;5.10;;;15.00;99.90;;;;;;5034268;28;20026;-66
2021/09/13 04:20:41;;;;;;;5.72;4.18;;;15.00;99.90;;;;;;5034117;28;20060;-66
2021/09/13 04:23:06;;;;;;;5.05;4.50;;;15.10;99.90;;;;;;5034431;28;20026;-66
2021/09/13 04:25:32;;;;;;;6.03;4.43;;;15.00;99.90;;;;;;5032948;28;20033;-65
2021/09/13 04:27:58;;;;;;;7.55;4.82;;;15.00;99.90;;;;;;5034243;28;20467;-65
2021/09/13 04:30:25;;;;;;;5.33;4.47;;;15.10;99.90;;;;;;5034519;28;20028;-66
2021/09/13 04:32:51;;;;;;;5.38;4.65;;;15.10;99.90;;;;;;5032354;28;20328;-66
2021/09/13 04:35:17;;;;;;;7.57;4.45;;;15.10;99.90;;;;;;5033831;28;20025;-65
2021/09/13 04:37:42;;;;;;;7.93;5.53;;;15.20;99.90;;;;;;5033787;28;20429;-65
2021/09/13 04:40:08;;;;;;;7.25;4.32;;;15.20;99.90;;;;;;5032977;28;20291;-65
2021/09/13 04:42:34;;;;;;;6.95;4.78;;;15.20;99.90;;;;;;5032259;28;20109;-65
2021/09/13 04:45:00;;;;;;;6.57;4.45;;;15.30;99.90;;;;;;5034117;28;20506;-66
2021/09/13 04:47:25;;;;;;;5.07;4.40;;;15.30;99.90;;;;;;5034114;28;20033;-67
2021/09/13 04:49:51;;;;;;;7.20;4.50;;;15.30;99.90;;;;;;5033830;28;20033;-67
2021/09/13 04:52:17;;;;;;;7.17;4.80;;;15.30;99.90;;;;;;5033491;28;20260;-67
2021/09/13 04:54:42;;;;;;;6.07;4.70;;;15.30;99.90;;;;;;5033824;28;20036;-67
2021/09/13 04:57:08;;;;;;;8.15;5.00;;;15.40;99.90;;;;;;5032133;28;20175;-67
2021/09/13 04:59:34;;;;;;;5.65;4.63;;;15.40;99.90;;;;;;5033197;28;20025;-67
2021/09/13 05:01:59;;;;;;;7.60;4.80;;;15.40;99.90;;;;;;5034531;28;20344;-67
2021/09/13 05:04:26;;;;;;;6.60;4.88;;;15.40;99.90;;;;;;5034112;28;20043;-66
2021/09/13 05:06:52;;;;;;;7.75;5.45;;;15.40;99.90;;;;;;5033404;28;20144;-66
2021/09/13 05:09:18;;;;;;;7.80;5.30;;;15.40;99.90;;;;;;5031892;28;20054;-67
2021/09/13 05:11:44;;;;;;;7.57;5.68;;;15.30;99.90;;;;;;5033161;28;20026;-67
2021/09/13 05:14:09;;;;;;;7.28;5.70;;;15.30;99.90;;;;;;5036363;28;20017;-67
2021/09/13 05:16:37;;;;;;;7.35;6.38;;;15.30;99.90;;;;;;5033545;28;20052;-67
2021/09/13 05:19:02;;;;;;;9.15;6.53;;;15.10;99.90;;;;;;5032983;28;20030;-67
2021/09/13 05:21:28;;;;;;;7.43;6.35;;;14.90;99.90;;;;;;5033262;28;20030;-67
2021/09/13 05:23:54;;;;;;;7.10;6.40;;;14.90;99.90;;;;;;5033283;28;20391;-67
2021/09/13 05:26:19;;;;;;;8.88;6.50;;;14.80;99.90;;;;;;5033232;28;20029;-67
2021/09/13 05:28:45;;;;;;;8.02;6.43;;;14.80;99.90;;;;;;5032787;28;20103;-67
2021/09/13 05:31:11;;;;;;;7.23;6.43;;;14.80;99.90;;;;;;5032788;28;20032;-67
2021/09/13 05:33:36;;;;;;;10.18;6.57;;;14.80;99.90;;;;;;5032759;28;20100;-67
2021/09/13 05:36:02;;;;;;;12.53;7.67;;;14.90;99.90;;;;;;5032928;28;20025;-67
2021/09/13 05:38:28;;;;;;;9.57;6.72;;;14.90;99.90;;;;;;5032420;28;20280;-67
2021/09/13 05:40:59;;;;;;;8.57;6.47;;;14.80;99.90;;;;;;5032540;28;20084;-67
2021/09/13 05:43:24;;;;;;;8.45;6.57;;;14.80;99.90;;;;;;5032751;28;20048;-68
2021/09/13 05:45:52;;;;;;;9.13;7.20;;;14.70;99.90;;;;;;5031426;28;20029;-67
2021/09/13 05:48:18;;;;;;;7.55;6.75;;;14.70;99.90;;;;;;5032471;28;20025;-66
2021/09/13 05:50:44;;;;;;;7.47;6.60;;;14.60;99.90;;;;;;5032761;28;20040;-64
2021/09/13 05:53:10;;;;;;;9.23;6.03;;;14.60;99.90;;;;;;5035757;28;20450;-65
2021/09/13 05:55:36;;;;;;;8.47;6.83;;;14.60;99.90;;;;;;5037391;28;20026;-66
2021/09/13 05:58:01;;;;;;;9.48;6.50;;;14.60;99.90;;;;;;5036522;28;20260;-66
2021/09/13 06:00:27;;;;;;;7.88;6.70;;;14.70;99.90;;;;;;5037157;28;20116;-68
2021/09/13 06:02:53;;;;;;;10.13;6.80;;;14.70;99.90;;;;;;5036651;28;20022;-67
2021/09/13 06:05:19;;;;;;;9.83;7.57;;;14.70;99.90;;;;;;5036400;28;20433;-66
2021/09/13 06:07:45;;;;;;;7.03;6.32;;;14.80;99.90;;;;;;5036791;28;20716;-69
2021/09/13 06:10:11;;;;;;;7.63;6.15;;;14.90;99.90;;;;;;5036573;28;20034;-69
2021/09/13 06:12:37;;;;;;;9.02;6.65;;;14.90;99.90;;;;;;5034917;28;20063;-69
2021/09/13 06:15:03;;;;;;;9.85;6.78;;;14.90;99.90;;;;;;5036206;28;20512;-69
2021/09/13 06:17:29;;;;;;;10.88;7.50;;;14.90;99.90;;;;;;5036037;28;20039;-70
2021/09/13 06:19:55;;;;;;;8.07;6.93;;;14.90;99.90;;;;;;5036457;28;20106;-69
2021/09/13 06:22:21;;;;;;;8.82;6.80;;;14.90;99.90;;;;;;5036293;28;20079;-70
2021/09/13 06:24:46;;;;;;;10.55;6.72;;;15.00;99.90;;;;;;5035283;28;20025;-69
2021/09/13 06:27:13;;;;;;;10.77;7.23;;;15.00;99.90;;;;;;5036154;28;20095;-70
2021/09/13 06:29:39;;;;;;;8.63;7.05;;;15.00;99.90;;;;;;5036251;28;20260;-71
2021/09/13 06:32:04;;;;;;;8.50;6.93;;;15.10;99.90;;;;;;5036258;28;20500;-69
2021/09/13 06:34:31;;;;;;;11.07;7.40;;;15.10;99.90;;;;;;5035706;28;20117;-67
2021/09/13 06:36:57;;;;;;;8.20;7.22;;;15.10;99.90;;;;;;5035367;28;20081;-67
2021/09/13 06:39:23;;;;;;;8.52;6.85;;;15.30;99.90;;;;;;5034092;28;20071;-67
2021/09/13 06:41:48;;;;;;;8.10;7.22;;;15.30;99.90;;;;;;5034183;28;20021;-67
2021/09/13 06:44:21;;;;;;;9.32;7.20;;;15.40;99.90;;;;;;5036053;28;20029;-69
2021/09/13 06:46:50;;;;;;;10.25;7.63;;;15.50;99.90;;;;;;5036272;28;20067;-70
2021/09/13 06:49:18;;;;;;;9.82;6.70;;;15.60;99.90;;;;;;5033893;28;20029;-69
2021/09/13 06:51:44;;;;;;;7.47;6.40;;;15.70;99.90;;;;;;5033914;28;20021;-69
2021/09/13 06:54:10;;;;;;;8.60;6.15;;;15.70;99.90;;;;;;5034068;28;20029;-68
2021/09/13 06:56:35;;;;;;;9.73;6.43;;;15.80;99.90;;;;;;5035261;28;20518;-68
2021/09/13 06:59:01;;;;;;;7.75;6.50;;;15.80;99.90;;;;;;5039798;28;20404;-68
2021/09/13 07:01:32;;;;;;;8.73;6.35;;;15.90;99.90;;;;;;5036001;28;20030;-69
2021/09/13 07:03:57;;;;;;;8.25;5.72;;;15.90;99.90;;;;;;5035134;28;20017;-69
2021/09/13 07:06:27;;;;;;;7.88;5.57;;;15.90;99.90;;;;;;5035124;28;20025;-69
2021/09/13 07:08:53;;;;;;;9.15;6.18;;;15.90;99.90;;;;;;5034951;28;20482;-67
2021/09/13 07:11:19;;;;;;;10.82;5.88;;;16.00;99.90;;;;;;5033399;28;20038;-68
2021/09/13 07:13:45;;;;;;;7.30;6.07;;;16.00;99.90;;;;;;5033302;28;20038;-68
2021/09/13 07:16:10;;;;;;;6.57;5.80;;;16.10;99.90;;;;;;5035114;28;20040;-69
2021/09/13 07:18:36;;;;;;;6.68;5.90;;;16.10;99.90;;;;;;5034844;28;20029;-68
2021/09/13 07:21:02;;;;;;;8.82;5.95;;;16.20;99.90;;;;;;5034611;28;20025;-68
2021/09/13 07:23:27;;;;;;;7.85;5.63;;;16.30;99.90;;;;;;5035138;28;20051;-69
2021/09/13 07:25:53;;;;;;;8.88;5.63;;;16.40;99.90;;;;;;5034207;28;20048;-70
2021/09/13 07:28:20;;;;;;;8.90;6.57;;;16.40;99.90;;;;;;5033636;28;20022;-69
2021/09/13 07:30:47;;;;;;;8.82;6.60;;;16.50;99.90;;;;;;5033532;28;20022;-67
2021/09/13 07:33:12;;;;;;;10.70;7.07;;;16.50;99.90;;;;;;5033285;28;20109;-66
2021/09/13 07:35:38;;;;;;;8.00;6.90;;;16.60;99.90;;;;;;5033297;28;20064;-67
2021/09/13 07:38:04;;;;;;;8.90;5.87;;;16.70;99.90;;;;;;5034145;28;20026;-67
2021/09/13 07:40:29;;;;;;;9.07;6.07;;;16.80;99.90;;;;;;5034751;28;20286;-66
2021/09/13 07:42:55;;;;;;;8.57;6.57;;;16.80;99.90;;;;;;5034321;28;20104;-66
2021/09/13 07:45:22;;;;;;;9.32;5.75;;;16.90;99.90;;;;;;5034662;28;20393;-66
2021/09/13 07:47:48;;;;;;;11.30;6.50;;;17.00;99.90;;;;;;5034629;28;20021;-66
2021/09/13 07:50:13;;;;;;;6.82;5.55;;;17.10;99.90;;;;;;5034823;28;20132;-69
2021/09/13 07:52:39;;;;;;;7.03;5.82;;;17.10;99.90;;;;;;5033709;28;20132;-70
2021/09/13 07:55:06;;;;;;;6.88;5.50;;;17.30;99.90;;;;;;5033394;28;20025;-69
2021/09/13 07:57:31;;;;;;;10.25;5.88;;;17.30;99.90;;;;;;5033043;28;20037;-70
2021/09/13 07:59:57;;;;;;;8.20;5.20;;;17.40;99.90;;;;;;5034845;28;20029;-70
2021/09/13 08:02:25;;;;;;;6.65;5.10;;;17.40;99.90;;;;;;5035071;28;20078;-72
2021/09/13 08:04:50;;;;;;;8.93;5.97;;;17.50;99.90;;;;;;5035491;28;20026;-72
2021/09/13 08:07:16;;;;;;;7.07;4.70;;;17.60;99.90;;;;;;5035254;28;20395;-72
2021/09/13 08:09:42;;;;;;;8.38;4.88;;;17.70;99.90;;;;;;5033117;28;20103;-72
2021/09/13 08:12:07;;;;;;;9.90;5.78;;;17.80;99.90;;;;;;5033128;28;20026;-73
2021/09/13 08:14:34;;;;;;;9.30;5.28;;;17.90;99.90;;;;;;5032862;28;20037;-73
2021/09/13 08:16:59;;;;;;;;;;;18.10;99.90;;;;;;5035143;28;20060;-73
2021/09/13 08:19:25;;;;;;;6.43;4.38;;;18.20;99.90;;;;;;5034086;28;19905;-67
2021/09/13 08:21:51;;;;;;;8.75;4.72;;;18.20;99.90;;;;;;5033763;28;20067;-66
2021/09/13 08:24:16;;;;;;;9.40;7.15;;;18.30;99.90;;;;;;5033912;28;20087;-66
2021/09/13 08:26:42;;;;;;;7.32;5.03;;;18.40;99.90;;;;;;5033739;28;20061;-66
2021/09/13 08:29:13;;;;;;;7.30;4.60;;;18.40;99.90;;;;;;5033371;28;20018;-73
2021/09/13 08:31:40;;;;;;;5.90;4.78;;;18.50;99.90;;;;;;5034510;28;20018;-69
2021/09/13 08:34:05;;;;;;;7.43;4.15;;;18.70;99.90;;;;;;5033788;28;20074;-66
2021/09/13 08:36:31;;;;;;;6.68;4.00;;;18.90;99.90;;;;;;5032536;28;20124;-65
2021/09/13 08:38:56;;;;;;;5.00;3.65;;;19.00;99.90;;;;;;5034016;28;20037;-66
2021/09/13 08:41:22;;;;;;;6.55;3.55;;;19.20;99.90;;;;;;5034238;28;20035;-66
2021/09/13 08:43:48;;;;;;;5.20;4.30;;;20.00;99.90;;;;;;5033574;28;20056;-66
2021/09/13 08:46:21;;;;;;;7.07;3.10;;;22.30;99.90;;;;;;5033565;28;20022;-67
2021/09/13 08:48:51;;;;;;;7.53;4.35;;;24.30;99.90;;;;;;5033584;28;20022;-70
2021/09/13 08:51:18;;;;;;;6.32;3.80;;;26.80;98.00;;;;;;5033575;28;20053;-70
2021/09/13 08:53:54;;;;;;;3.55;2.60;;;29.20;94.00;;;;;;5033932;28;20022;-68
2021/09/13 08:56:24;;;;;;;4.63;2.83;;;31.20;88.30;;;;;;5033334;28;20041;-71
2021/09/13 08:58:49;;;;;;;4.45;2.90;;;32.40;82.50;;;;;;5032906;28;20029;-70
2021/09/13 09:01:16;;;;;;;3.55;2.70;;;33.90;78.30;;;;;;5033091;28;20037;-70
2021/09/13 09:03:45;;;;;;;12.48;6.57;;;34.60;72.90;;;;;;5033210;28;20043;-69
2021/09/13 09:06:30;;;;;;;4.13;2.70;;;33.70;72.50;;;;;;5031423;28;20025;-68
2021/09/13 09:09:04;;;;;;;3.80;2.25;;;33.70;71.90;;;;;;5032787;28;20079;-67
2021/09/13 09:11:49;;;;;;;7.60;2.58;;;34.70;70.50;;;;;;5033079;28;20048;-71
2021/09/13 09:14:42;;;;;;;5.65;2.08;;;36.00;67.90;;;;;;5033375;28;20469;-69
2021/09/13 09:17:32;;;;;;;3.17;2.30;;;35.50;65.90;;;;;;5033221;28;20030;-69
2021/09/13 09:20:02;;;;;;;2.42;2.22;;;36.60;64.80;;;;;;5031291;28;20458;-69
2021/09/13 09:22:30;;;;;;;4.03;2.28;;;37.20;63.20;;;;;;5033558;28;20097;-68
2021/09/13 09:24:57;;;;;;;2.63;2.35;;;37.50;61.00;;;;;;5033538;28;20059;-69
2021/09/13 09:27:24;;;;;;;4.53;2.08;;;37.30;60.00;;;;;;5033010;28;20024;-67
2021/09/13 09:29:50;;;;;;;3.40;1.98;;;37.70;59.60;;;;;;5033547;28;20022;-66
2021/09/13 09:32:22;;;;;;;2.20;1.90;;;37.80;59.10;;;;;;5035047;28;20028;-66
2021/09/13 09:34:48;;;;;;;3.40;2.20;;;37.60;58.20;;;;;;5034950;28;20030;-68
2021/09/13 09:37:14;;;;;;;4.05;2.90;;;36.10;59.30;;;;;;5034411;28;20044;-67
2021/09/13 09:39:48;;;;;;;4.05;2.05;;;36.10;60.80;;;;;;5033498;28;20495;-66
2021/09/13 09:42:25;;;;;;;4.82;1.83;;;36.60;58.60;;;;;;5034464;28;20386;-67
2021/09/13 09:44:51;;;;;;;6.03;3.50;;;37.20;58.70;;;;;;5034936;28;20049;-67
2021/09/13 09:47:21;;;;;;;3.00;1.92;;;37.20;58.80;;;;;;5035064;28;20370;-67
2021/09/13 09:49:51;;;;;;;3.22;2.15;;;37.40;57.50;;;;;;5033232;28;20033;-67
2021/09/13 09:52:30;;;;;;;10.40;3.60;;;37.50;56.80;;;;;;5033793;28;20025;-68
2021/09/13 09:55:15;;;;;;;3.55;1.88;;;37.70;57.20;;;;;;5035334;28;20021;-67
2021/09/13 09:57:42;;;;;;;;;;;37.70;56.40;;;;;;5034190;28;20033;-67
2021/09/13 10:00:21;;;;;;;15.35;3.95;;;38.00;56.30;;;;;;5034826;28;20378;-67
2021/09/13 10:02:48;;;;;;;3.15;2.08;;;38.30;57.10;;;;;;5033271;28;20026;-67
2021/09/13 10:05:13;;;;;;;11.75;5.50;;;37.60;55.70;;;;;;5033842;28;20091;-66
2021/09/13 10:07:41;;;;;;;9.40;2.40;;;36.90;56.60;;;;;;5035890;28;20025;-66
2021/09/13 10:10:10;;;;;;;2.42;1.90;;;36.70;56.80;;;;;;5033561;28;20390;-67
2021/09/13 10:12:37;;;;;;;2.75;2.05;;;36.10;57.10;;;;;;5034357;28;20100;-67
2021/09/13 10:15:04;;;;;;;3.38;2.30;;;35.10;58.80;;;;;;5034273;28;20026;-67
2021/09/13 10:17:32;;;;;;;3.20;2.05;;;35.80;58.00;;;;;;5033984;28;20026;-67
2021/09/13 10:19:58;;;;;;;2.30;2.05;;;35.50;58.00;;;;;;5033796;28;20025;-66
2021/09/13 10:22:24;;;;;;;4.20;2.38;;;35.20;57.50;;;;;;5033486;28;20467;-67
2021/09/13 10:24:50;;;;;;;3.42;2.03;;;35.50;58.20;;;;;;5033567;28;20056;-66
2021/09/13 10:27:20;;;;;;;3.78;1.80;;;35.10;57.70;;;;;;5032951;28;20075;-66
2021/09/13 10:29:46;;;;;;;5.05;2.40;;;35.10;58.50;;;;;;5033600;28;20496;-66
2021/09/13 10:32:13;;;;;;;3.25;2.15;;;35.70;57.70;;;;;;5032711;28;20041;-66
2021/09/13 10:34:42;;;;;;;2.05;1.77;;;36.40;57.20;;;;;;5032336;28;20037;-66
2021/09/13 10:37:16;;;;;;;3.53;1.90;;;36.00;57.30;;;;;;5032556;28;20056;-66
2021/09/13 10:40:04;;;;;;;2.57;2.00;;;35.80;58.00;;;;;;5033816;28;20037;-67
2021/09/13 10:42:37;;;;;;;3.47;2.03;;;37.30;56.40;;;;;;5036060;28;20041;-67
2021/09/13 10:45:07;;;;;;;2.67;2.38;;;37.30;55.90;;;;;;5035947;28;20322;-67
2021/09/13 10:47:33;;;;;;;3.78;1.63;;;37.60;55.60;;;;;;5034561;28;20080;-67
2021/09/13 10:50:24;;;;;;;3.70;2.20;;;36.90;55.50;;;;;;5037815;28;20029;-67
2021/09/13 10:52:52;;;;;;;2.47;1.70;;;36.30;56.50;;;;;;5036610;28;20032;-67
2021/09/13 10:55:18;;;;;;;2.40;2.00;;;36.50;56.20;;;;;;5036439;28;20022;-68
2021/09/13 10:57:59;;;;;;;2.90;2.10;;;35.40;56.70;;;;;;5035759;28;20029;-68
2021/09/13 11:00:40;;;;;;;2.72;2.45;;;33.50;59.20;;;;;;5035903;28;20057;-68
2021/09/13 11:03:28;;;;;;;5.97;2.42;;;32.50;61.30;;;;;;5036299;28;20381;-68
2021/09/13 11:06:06;;;;;;;4.50;2.17;;;31.20;63.70;;;;;;5006352;28;20391;-68
2021/09/13 11:08:36;;;;;;;2.38;2.17;;;29.70;66.40;;;;;;5035004;28;20029;-68
2021/09/13 11:11:07;;;;;;;3.92;2.70;;;28.90;68.80;;;;;;5035650;28;20501;-68
2021/09/13 11:13:35;;;;;;;4.10;2.40;;;27.90;70.30;;;;;;5033953;28;20340;-68
2021/09/13 11:16:01;;;;;;;5.60;3.25;;;27.30;73.20;;;;;;5035328;28;20030;-69
2021/09/13 11:18:34;;;;;;;2.83;2.05;;;26.90;73.40;;;;;;5035313;28;20040;-69
2021/09/13 11:21:28;;;;;;;3.13;2.47;;;26.70;74.40;;;;;;5035678;28;20083;-68
2021/09/13 11:23:59;;;;;;;3.40;2.40;;;26.30;75.60;;;;;;5033741;28;20025;-66
2021/09/13 11:26:43;;;;;;;4.25;2.35;;;26.00;77.70;;;;;;5035269;28;20014;-66
2021/09/13 11:29:18;;;;;;;4.05;2.45;;;25.80;77.80;;;;;;5035150;28;20021;-66
2021/09/13 11:31:47;;;;;;;4.07;2.58;;;25.70;79.00;;;;;;5035609;28;20083;-69
2021/09/13 11:34:13;;;;;;;3.03;2.65;;;25.50;79.30;;;;;;5033904;28;20120;-68
2021/09/13 11:36:39;;;;;;;;;;;25.50;80.00;;;;;;5038086;28;20061;-68
2021/09/13 11:39:07;;;;;;;4.13;2.88;;;25.40;80.30;;;;;;5034175;28;19917;-69
2021/09/13 11:41:34;;;;;;;3.17;2.30;;;25.30;81.30;;;;;;5035186;28;20095;-66
2021/09/13 11:44:04;;;;;;;4.97;3.00;;;25.20;80.90;;;;;;5034067;28;20367;-67
2021/09/13 11:46:31;;;;;;;3.05;2.45;;;25.20;80.80;;;;;;5035222;28;20021;-69
2021/09/13 11:49:21;;;;;;;4.55;2.70;;;25.00;81.60;;;;;;5050434;28;20022;-69
2021/09/13 11:52:10;;;;;;;2.97;2.50;;;24.70;81.90;;;;;;5033423;28;20060;-67
2021/09/13 11:54:41;;;;;;;3.10;2.70;;;24.70;82.50;;;;;;5034247;28;20101;-68
2021/09/13 11:57:29;;;;;;;5.03;2.72;;;24.70;82.50;;;;;;5034895;28;20034;-68
2021/09/13 12:00:01;;;;;;;5.72;2.70;;;24.70;83.20;;;;;;5034237;28;20382;-69
2021/09/13 12:02:28;;;;;;;3.40;2.53;;;24.80;83.90;;;;;;5034681;28;20578;-71
2021/09/13 12:04:54;;;;;;;3.70;2.28;;;24.90;83.40;;;;;;5034304;28;20478;-69
2021/09/13 12:07:19;;;;;;;;;;;25.00;83.60;;;;;;5034946;28;20108;-70
2021/09/13 12:09:51;;;;;;;4.03;2.40;;;25.10;84.20;;;;;;5032736;28;20009;-67
2021/09/13 12:12:21;;;;;;;2.97;2.53;;;25.20;83.80;;;;;;5033962;28;20025;-68
2021/09/13 12:14:48;;;;;;;4.88;2.55;;;25.20;83.70;;;;;;5034086;28;20076;-69
2021/09/13 12:17:18;;;;;;;3.85;2.92;;;25.20;83.80;;;;;;5032325;28;20061;-70
2021/09/13 12:19:49;;;;;;;3.80;2.53;;;25.10;84.00;;;;;;5034013;28;20025;-70
2021/09/13 12:22:16;;;;;;;3.53;2.90;;;24.90;84.00;;;;;;5033618;28;20022;-70
2021/09/13 12:24:46;;;;;;;4.07;2.50;;;24.90;84.70;;;;;;5033864;28;20025;-70
2021/09/13 12:27:17;;;;;;;4.95;2.63;;;24.90;84.90;;;;;;5032565;28;20454;-69
2021/09/13 12:30:15;;;;;;;5.85;2.53;;;25.00;84.80;;;;;;5033794;28;20029;-72
2021/09/13 12:32:52;;;;;;;3.80;2.85;;;25.00;84.70;;;;;;5033080;28;20107;-71
2021/09/13 12:35:29;;;;;;;3.65;2.08;;;25.10;85.40;;;;;;5034155;28;20030;-69
2021/09/13 12:37:54;;;;;;;3.50;2.28;;;25.10;84.70;;;;;;5032854;28;20025;-68
2021/09/13 12:40:20;;;;;;;;;;;25.10;85.00;;;;;;5032531;28;20041;-67
2021/09/13 12:42:59;;;;;;;4.88;2.55;;;25.10;84.80;;;;;;5031867;28;20353;-66
2021/09/13 12:45:33;;;;;;;3.83;2.97;;;25.10;84.90;;;;;;5033769;28;20013;-69
2021/09/13 12:48:04;;;;;;;3.70;2.88;;;25.10;85.30;;;;;;5033886;28;20458;-70
2021/09/13 12:50:38;;;;;;;3.22;2.85;;;25.10;85.60;;;;;;5032189;28;20036;-68
2021/09/13 12:53:10;;;;;;;3.38;2.20;;;25.10;85.30;;;;;;5033191;28;20025;-69
2021/09/13 12:55:42;;;;;;;4.50;2.60;;;25.20;85.00;;;;;;5032160;28;20092;-70